KCCB/CCB METAR and TAF weather

Enter ICAO airport designator
Station Type Date Time Source
KCCB METAR 2018/01/17 06:35 UTC NOAA

KCCB 170635Z AUTO 33004KT 10SM CLR 15/04 A3016 RMK AO2


Station Type Date Time Source
KCCB Decoded METAR 2018/01/17 06:35 UTC NOAA

Station name not available
Jan 17, 2018 - 01:35 AM EST / 2018.01.17 0635 UTC
Wind: from the NNW (330 degrees) at 5 MPH (4 KT):0
Visibility: 10 mile(s):0
Sky conditions: clear
Temperature: 59 F (15 C)
Dew Point: 39 F (4 C)
Relative Humidity: 47%
Pressure (altimeter): 30.16 in. Hg (1021 hPa)
ob: KCCB 170635Z AUTO 33004KT 10SM CLR 15/04 A3016 RMK AO2
cycle: 6

Station Type Date Time Source
KCCB TAF UTC NOAA

Error!


Example: see airport list